• Join FlightAware (Why Join?)
  • Login
  • US Flag 
01:34AM EDT


 

Airport Tracker/Info


-or-


 

Live Flight TrackerFlight Track Log ✈ N600TR ✈ 16-Aug-2013 ✈ KORD - KATL

Flight Track Log - Related Links

Times and Time Zones

All times are in EDT time to prevent confusion due to time zone crossing. See the N600TR flight status page for this flight to view local times or setup timezone preferences in your user account.

Time Position Orientation Groundspeed Altitude Reporting Facility
EDT Latitude Longitude Course Direction KTS MPH feet Rate Location/Type
07:16AM 41.9167 -87.9167 180° South 190 219 2,000  Level Chicago TRACON
07:17AM 41.8667 -87.9167 180° South 242 278 3,900 1,980 Climbing Chicago TRACON
07:17AM 41.8069 -87.9083 174° South 245 282 5,600 2,040 Climbing Chicago Center
07:18AM 41.6796 -87.7650 180° South  Level Estimated
07:18AM 41.7353 -87.8822 165° South 264 304 7,800  Level Chicago Center
07:19AM 41.5789 -87.7180 180° South  Level Estimated
07:19AM 41.6569 -87.8603 168° South 283 326 10,000  Level Chicago Center
07:20AM 41.4782 -87.6712 168° South  Level Estimated
07:21AM 41.3772 -87.6244 180° South  Level Estimated
07:21AM 41.5728 -87.8500 175° South 301 346 11,100  Level Chicago Center
07:22AM 41.4761 -87.8411 176° South 341 392 12,800 1,620 Climbing Chicago Center
07:23AM 41.3789 -87.8239 172° South 348 400 14,500 1,620 Climbing Chicago Center
07:24AM 41.2800 -87.7919 166° South 359 413 16,200 1,560 Climbing Chicago Center
07:25AM 41.1778 -87.7583 166° South 371 427 17,700 1,380 Climbing Chicago Center
07:26AM 41.0742 -87.7247 166° South 381 438 19,100 1,260 Climbing Chicago Center
07:27AM 40.9672 -87.6881 165° South 392 451 20,400 1,260 Climbing Chicago Center
07:28AM 40.8592 -87.6575 168° South 397 457 21,800 1,320 Climbing Chicago Center
07:29AM 40.7236 -87.6461 176° South 406 467 23,200 1,200 Climbing Chicago Center
07:30AM 40.6086 -87.6414 178° South 414 476 24,300 1,080 Climbing Chicago Center
07:31AM 40.4944 -87.6133 169° South 419 482 25,500 960 Climbing Chicago Center
07:32AM 40.3797 -87.5756 166° South 424 488 26,300 660 Climbing Chicago Center
07:33AM 40.2619 -87.5358 166° South 436 502 26,900 720 Climbing Chicago Center
07:34AM 40.1283 -87.4872 164° South 445 512 27,800 840 Climbing Chicago Center
07:35AM 40.0303 -87.4536 165° South 446 513 28,500 600 Climbing Indianapolis Center
07:36AM 39.9089 -87.4075 164° South 456 525 29,000 240 Climbing Indianapolis Center
07:37AM 39.7864 -87.3608 164° South 461 531 29,000  Level Indianapolis Center
07:38AM 39.6625 -87.3144 164° South 465 535 29,000  Level Indianapolis Center
07:39AM 39.5383 -87.2656 163° South 469 540 29,000  Level Indianapolis Center
07:40AM 39.3919 -87.2083 163° South 462 532 29,000  Level Indianapolis Center
07:41AM 39.2694 -87.1611 163° South 461 531 29,000  Level Indianapolis Center
07:42AM 39.1481 -87.1056 160° South 465 535 29,000  Level Indianapolis Center
07:43AM 39.0239 -87.0494 161° South 461 531 29,000  Level Indianapolis Center
07:44AM 38.9028 -86.9953 161° South 459 528 29,000  Level Indianapolis Center
07:45AM 38.7808 -86.9392 160° South 462 532 29,000  Level Indianapolis Center
07:46AM 38.6581 -86.8906 163° South 459 528 29,000  Level Indianapolis Center
07:47AM 38.5331 -86.8528 167° South 455 524 29,000  Level Indianapolis Center
07:48AM 38.4069 -86.8153 167° South 454 522 29,000  Level Indianapolis Center
07:49AM 38.2800 -86.7828 169° South 456 525 29,000  Level Indianapolis Center
07:50AM 38.1528 -86.7769 178° South 449 517 29,000  Level Indianapolis Center
07:51AM 38.0250 -86.7667 176° South 452 520 29,000  Level Indianapolis Center
07:52AM 37.8992 -86.7542 176° South 450 518 29,000  Level Indianapolis Center
07:53AM 37.7728 -86.7356 173° South 451 519 29,000  Level Indianapolis Center
07:54AM 37.6472 -86.7119 172° South 453 521 29,000  Level Indianapolis Center
07:55AM 37.5136 -86.6783 169° South 455 524 29,000  Level Indianapolis Center
07:56AM 37.3897 -86.6331 164° South 461 531 29,000  Level Indianapolis Center
07:57AM 37.2697 -86.5797 161° South 455 524 29,000  Level Indianapolis Center
07:58AM 37.1272 -86.5178 161° South 460 529 29,000  Level Indianapolis Center
07:59AM 37.0058 -86.4650 161° South 458 527 29,000  Level Indianapolis Center
08:00AM 36.8833 -86.4164 162° South 458 527 29,000  Level Indianapolis Center
08:01AM 36.7561 -86.4092 177° South 456 525 29,000  Level Indianapolis Center
08:02AM 36.6281 -86.4061 179° South 454 522 29,000  Level Indianapolis Center
08:03AM 36.5000 -86.4042 179° South 453 521 29,000  Level Indianapolis Center
08:04AM 36.3706 -86.4008 179° South 455 524 29,000  Level Indianapolis Center
08:05AM 36.2403 -86.3981 179° South 459 528 29,000  Level Indianapolis Center
08:06AM 36.1108 -86.3950 179° South 457 526 29,000  Level Indianapolis Center
08:07AM 35.9719 -86.3892 178° South 461 531 29,000 -120 Level Memphis Center
08:09AM 35.7878 -86.3811 178° South 474 545 28,700 -480 Descending Atlanta Center
08:10AM 35.6681 -86.3164 156° South 453 521 27,900 -780 Descending Atlanta Center
08:11AM 35.5633 -86.2267 145° Southeast 460 529 27,200 -480 Descending Atlanta Center
08:12AM 35.4628 -86.1322 143° Southeast 460 529 27,000 -480 Descending Atlanta Center
08:13AM 35.3475 -86.0247 143° Southeast 466 536 26,300 -1,080 Descending Atlanta Center
08:14AM 35.2469 -85.9258 141° Southeast 466 536 24,900 -1,140 Descending Atlanta Center
08:15AM 35.1522 -85.8347 142° Southeast 454 522 24,100 -480 Descending Atlanta Center
08:16AM 35.0556 -85.7489 144° Southeast 442 509 24,000 -60 Descending Atlanta Center
08:17AM 34.9522 -85.6733 149° Southeast 435 501 24,000  Level Atlanta Center
08:18AM 34.8467 -85.5978 150° Southeast 435 501 24,000  Level Atlanta Center
08:19AM 34.7411 -85.5250 150° Southeast 440 506 24,000  Level Atlanta Center
08:20AM 34.6397 -85.4500 149° Southeast 440 506 24,000 -420 Level Atlanta Center
08:21AM 34.5383 -85.3728 148° Southeast 440 506 23,200 -1,920 Descending Atlanta Center
08:22AM 34.4369 -85.3056 151° Southeast 430 495 20,200 -2,880 Descending Atlanta Center
08:23AM 34.3436 -85.2514 154° Southeast 419 482 17,500 -2,700 Descending Atlanta Center
08:24AM 34.2458 -85.1922 153° Southeast 402 463 14,800 -2,100 Descending Atlanta Center
08:25AM 34.1653 -85.1108 140° Southeast 389 448 13,300 -900 Descending Atlanta Center
08:26AM 34.1056 -85.0297 132° Southeast 347 399 13,000 -180 Descending Atlanta Center
08:27AM 34.0414 -84.9539 136° Southeast 321 369 13,000 -600 Level Atlanta Center
08:28AM 33.9686 -84.9206 159° South 287 330 11,800 -1,320 Descending Atlanta Center
08:29AM 33.8892 -84.9172 178° South 280 322 10,400 -1,200 Descending Atlanta Center
08:30AM 33.8078 -84.9164 180° South 286 329 9,400 -1,140 Descending Atlanta Center
08:31AM 33.7306 -84.9156 179° South 286 329 8,200 -900 Descending Atlanta Center
08:32AM 33.6597 -84.9122 178° South 255 293 7,600 -720 Descending Atlanta Center
08:33AM 33.6333 -84.8500 117° Southeast 200 230 6,900 -600 Descending Atlanta TRACON
08:34AM 33.6333 -84.8000 90° East 209 241 6,500 -900 Descending Atlanta TRACON
08:35AM 33.6333 -84.7167 90° East 209 241 5,300 -1,140 Descending Atlanta TRACON
08:36AM 33.6333 -84.6500 90° East 202 232 4,300 -1,080 Descending Atlanta TRACON
08:37AM 33.6333 -84.6000 90° East 189 217 3,300 -960 Descending Atlanta TRACON
08:38AM 33.6333 -84.5500 90° East 165 190 2,600 -780 Descending Atlanta TRACON
08:39AM 33.6333 -84.5000 90° East 122 140 1,900 -720 Descending Atlanta TRACON
08:40AM 33.6333 -84.4667 90° East 134 154 1,300 -720 Descending Atlanta TRACON